Accueil
METAR-TAF:

METAR-TAF

Aéroports :

Turin, Italie

Bric della Croce

latitude: 45-02N, longitude: 007-44E, altitude: 709 m

Observation

Le bulletin a été fait il y a 27 minutes, à 20:55 UTC
Vent 3 kt de nord
Température 9°C
Humidité 100%
Pression 1007 hPa
Visibilité: 2000 m
Ciel couvert à une hauteur de 1000 ft
brume

METAR: LIMK 262055Z 01003KT 2000 BR OVC010 09/09 Q1007 RMK OVC VAL FOSCHIA VIS MIN 2000

Heure: 23:22 (21:22 UTC)


TAF: absent

Observations et prévisions météorologiques de plus de 4000 aéroports (messages METAR et TAF).

Les stations disponibles sont représentées par des disques jaunes et rouges sur la carte.

Passer la souris dessus pour voir le nom de la station.

Cliquer dessus pour voir les observations et prévisions météorologiques.

Pour changer de carte: cliquez sur les boutons verts avec une croix noire pour zoomer, sur le bouton vert avec un tiret pour effectuer un zoom arrière, ou sur les flèches vertes pour les cartes adjacentes.


METAR-TAF: